sensor_id;sensor_type;location;lat;lon;timestamp;pressure;altitude;pressure_sealevel;temperature;humidity
13033;BME280;6583;42.632;23.298;2023-02-12T00:02:26;72394.34;;;-146.40;36.75
13033;BME280;6583;42.632;23.298;2023-02-12T00:04:53;72388.25;;;-146.40;36.92
13033;BME280;6583;42.632;23.298;2023-02-12T00:07:19;72390.28;;;-146.40;36.03
13033;BME280;6583;42.632;23.298;2023-02-12T00:09:47;72392.31;;;-146.40;36.25
13033;BME280;6583;42.632;23.298;2023-02-12T00:12:14;72394.34;;;-146.40;36.46
13033;BME280;6583;42.632;23.298;2023-02-12T00:14:40;72392.31;;;-146.40;35.83
13033;BME280;6583;42.632;23.298;2023-02-12T00:17:07;72384.22;;;-146.40;36.48
13033;BME280;6583;42.632;23.298;2023-02-12T00:19:34;72398.38;;;-146.40;35.96
13033;BME280;6583;42.632;23.298;2023-02-12T00:22:01;72386.25;;;-146.40;36.20
13033;BME280;6583;42.632;23.298;2023-02-12T00:24:27;72390.28;;;-146.40;36.20
13033;BME280;6583;42.632;23.298;2023-02-12T00:26:55;72380.16;;;-146.40;36.02
13033;BME280;6583;42.632;23.298;2023-02-12T00:29:22;72378.13;;;-146.40;36.78
13033;BME280;6583;42.632;23.298;2023-02-12T00:31:48;72378.13;;;-146.40;35.72
13033;BME280;6583;42.632;23.298;2023-02-12T00:34:15;72374.09;;;-146.40;36.18
13033;BME280;6583;42.632;23.298;2023-02-12T00:36:42;72376.13;;;-146.40;35.89
13033;BME280;6583;42.632;23.298;2023-02-12T00:39:09;72363.97;;;-146.40;36.89
13033;BME280;6583;42.632;23.298;2023-02-12T00:41:36;72357.91;;;-146.40;35.18
13033;BME280;6583;42.632;23.298;2023-02-12T00:44:04;72345.75;;;-146.40;36.46
13033;BME280;6583;42.632;23.298;2023-02-12T00:46:31;72337.66;;;-146.40;36.69
13033;BME280;6583;42.632;23.298;2023-02-12T00:48:57;72335.63;;;-146.40;36.11
13033;BME280;6583;42.632;23.298;2023-02-12T00:51:24;72331.59;;;-146.40;35.77
13033;BME280;6583;42.632;23.298;2023-02-12T00:53:51;72319.44;;;-146.40;34.30
13033;BME280;6583;42.632;23.298;2023-02-12T00:56:17;72313.38;;;-146.40;34.17
13033;BME280;6583;42.632;23.298;2023-02-12T00:58:44;72305.25;;;-146.40;34.86
13033;BME280;6583;42.632;23.298;2023-02-12T01:01:12;72317.41;;;-146.40;34.72
13033;BME280;6583;42.632;23.298;2023-02-12T01:03:39;72303.25;;;-146.40;34.31
13033;BME280;6583;42.632;23.298;2023-02-12T01:06:06;72295.16;;;-146.40;34.06
13033;BME280;6583;42.632;23.298;2023-02-12T01:08:33;72291.09;;;-146.40;34.74
13033;BME280;6583;42.632;23.298;2023-02-12T01:11:01;72289.06;;;-146.40;35.50
13033;BME280;6583;42.632;23.298;2023-02-12T01:13:28;72287.03;;;-146.40;34.46
13033;BME280;6583;42.632;23.298;2023-02-12T01:16:07;72278.94;;;-146.40;33.78
13033;BME280;6583;42.632;23.298;2023-02-12T01:18:36;72283.00;;;-146.40;32.76
13033;BME280;6583;42.632;23.298;2023-02-12T01:21:08;72280.97;;;-146.40;34.17
13033;BME280;6583;42.632;23.298;2023-02-12T01:23:34;72285.03;;;-146.40;33.91
13033;BME280;6583;42.632;23.298;2023-02-12T01:26:01;72291.09;;;-146.40;34.42
13033;BME280;6583;42.632;23.298;2023-02-12T01:28:29;72315.38;;;-146.40;34.62
13033;BME280;6583;42.632;23.298;2023-02-12T01:30:55;72299.19;;;-146.40;35.15
13033;BME280;6583;42.632;23.298;2023-02-12T01:33:22;72325.50;;;-146.40;35.82
13033;BME280;6583;42.632;23.298;2023-02-12T01:35:50;72327.53;;;-146.40;37.31
13033;BME280;6583;42.632;23.298;2023-02-12T01:38:17;72323.47;;;-146.40;36.76
13033;BME280;6583;42.632;23.298;2023-02-12T01:40:43;72327.53;;;-146.40;36.88
13033;BME280;6583;42.632;23.298;2023-02-12T01:43:11;72331.59;;;-146.40;37.77
13033;BME280;6583;42.632;23.298;2023-02-12T01:45:47;72333.59;;;-146.40;37.70
13033;BME280;6583;42.632;23.298;2023-02-12T01:48:17;72331.59;;;-146.40;37.70
13033;BME280;6583;42.632;23.298;2023-02-12T01:50:47;72339.69;;;-146.40;39.49
13033;BME280;6583;42.632;23.298;2023-02-12T01:53:17;72351.81;;;-146.40;38.60
13033;BME280;6583;42.632;23.298;2023-02-12T01:55:47;72341.69;;;-146.40;37.54
13033;BME280;6583;42.632;23.298;2023-02-12T01:58:14;72305.25;;;-146.40;39.29
13033;BME280;6583;42.632;23.298;2023-02-12T02:00:41;72331.59;;;-146.40;39.06
13033;BME280;6583;42.632;23.298;2023-02-12T02:03:08;72323.47;;;-146.40;39.08
13033;BME280;6583;42.632;23.298;2023-02-12T02:05:41;72323.47;;;-146.40;38.73
13033;BME280;6583;42.632;23.298;2023-02-12T02:08:09;72335.63;;;-146.40;39.42
13033;BME280;6583;42.632;23.298;2023-02-12T02:10:38;72323.47;;;-146.40;40.21
13033;BME280;6583;42.632;23.298;2023-02-12T02:13:05;72323.47;;;-146.40;40.42
13033;BME280;6583;42.632;23.298;2023-02-12T02:15:53;72337.66;;;-146.40;40.91
13033;BME280;6583;42.632;23.298;2023-02-12T02:18:23;72335.63;;;-146.40;40.23
13033;BME280;6583;42.632;23.298;2023-02-12T02:21:22;72321.47;;;-146.40;41.59
13033;BME280;6583;42.632;23.298;2023-02-12T02:24:11;72311.34;;;-146.40;41.43
13033;BME280;6583;42.632;23.298;2023-02-12T02:27:06;72319.44;;;-146.40;41.27
13033;BME280;6583;42.632;23.298;2023-02-12T02:29:52;72319.44;;;-146.40;42.57
13033;BME280;6583;42.632;23.298;2023-02-12T02:32:26;72319.44;;;-146.40;41.48
13033;BME280;6583;42.632;23.298;2023-02-12T02:34:59;72315.38;;;-146.40;42.33
13033;BME280;6583;42.632;23.298;2023-02-12T02:37:32;72317.41;;;-146.40;42.24
13033;BME280;6583;42.632;23.298;2023-02-12T02:40:08;72325.50;;;-146.40;42.58
13033;BME280;6583;42.632;23.298;2023-02-12T02:42:40;72313.38;;;-146.40;42.48
13033;BME280;6583;42.632;23.298;2023-02-12T02:45:12;72321.47;;;-146.40;42.35
13033;BME280;6583;42.632;23.298;2023-02-12T02:47:44;72311.34;;;-146.40;43.35
13033;BME280;6583;42.632;23.298;2023-02-12T02:50:15;72313.38;;;-146.40;44.84
13033;BME280;6583;42.632;23.298;2023-02-12T02:52:45;72315.38;;;-146.40;42.97
13033;BME280;6583;42.632;23.298;2023-02-12T02:55:16;72303.25;;;-146.40;44.29
13033;BME280;6583;42.632;23.298;2023-02-12T02:57:47;72313.38;;;-146.40;44.96
13033;BME280;6583;42.632;23.298;2023-02-12T03:00:19;72311.34;;;-146.40;45.95
13033;BME280;6583;42.632;23.298;2023-02-12T03:02:52;72315.38;;;-146.40;45.45
13033;BME280;6583;42.632;23.298;2023-02-12T03:05:25;72303.25;;;-146.40;44.97
13033;BME280;6583;42.632;23.298;2023-02-12T03:07:56;72301.22;;;-146.40;45.85
13033;BME280;6583;42.632;23.298;2023-02-12T03:10:26;72293.13;;;-146.40;46.46
13033;BME280;6583;42.632;23.298;2023-02-12T03:12:59;72303.25;;;-146.40;45.05
13033;BME280;6583;42.632;23.298;2023-02-12T03:15:31;72295.16;;;-146.40;45.76
13033;BME280;6583;42.632;23.298;2023-02-12T03:18:03;72276.94;;;-146.40;46.11
13033;BME280;6583;42.632;23.298;2023-02-12T03:20:35;72280.97;;;-146.40;44.48
13033;BME280;6583;42.632;23.298;2023-02-12T03:23:09;72287.03;;;-146.40;43.07
13033;BME280;6583;42.632;23.298;2023-02-12T03:25:39;72280.97;;;-146.40;45.11
13033;BME280;6583;42.632;23.298;2023-02-12T03:28:12;72276.94;;;-146.40;44.98
13033;BME280;6583;42.632;23.298;2023-02-12T03:30:44;72283.00;;;-146.40;44.67
13033;BME280;6583;42.632;23.298;2023-02-12T03:33:20;72293.13;;;-146.40;45.02
13033;BME280;6583;42.632;23.298;2023-02-12T03:35:54;72295.16;;;-146.40;43.99
13033;BME280;6583;42.632;23.298;2023-02-12T03:38:33;72307.28;;;-146.40;43.19
13033;BME280;6583;42.632;23.298;2023-02-12T03:41:05;72299.19;;;-146.40;43.53
13033;BME280;6583;42.632;23.298;2023-02-12T03:43:40;72303.25;;;-146.40;42.79
13033;BME280;6583;42.632;23.298;2023-02-12T03:46:14;72309.31;;;-146.40;44.83
13033;BME280;6583;42.632;23.298;2023-02-12T03:48:48;72305.25;;;-146.40;43.35
13033;BME280;6583;42.632;23.298;2023-02-12T03:51:22;72303.25;;;-146.40;43.24
13033;BME280;6583;42.632;23.298;2023-02-12T03:53:51;72299.19;;;-146.40;42.29
13033;BME280;6583;42.632;23.298;2023-02-12T03:56:23;72293.13;;;-146.40;42.07
13033;BME280;6583;42.632;23.298;2023-02-12T03:58:50;72287.03;;;-146.40;42.01
13033;BME280;6583;42.632;23.298;2023-02-12T04:01:17;72295.16;;;-146.40;41.93
13033;BME280;6583;42.632;23.298;2023-02-12T04:03:45;72293.13;;;-146.40;41.36
13033;BME280;6583;42.632;23.298;2023-02-12T04:06:21;72289.06;;;-146.40;41.10
13033;BME280;6583;42.632;23.298;2023-02-12T04:08:48;72283.00;;;-146.40;40.57
13033;BME280;6583;42.632;23.298;2023-02-12T04:11:22;72283.00;;;-146.40;41.55
13033;BME280;6583;42.632;23.298;2023-02-12T04:14:02;72301.22;;;-146.40;41.06
13033;BME280;6583;42.632;23.298;2023-02-12T04:16:40;72283.00;;;-146.40;41.45
13033;BME280;6583;42.632;23.298;2023-02-12T04:19:12;72287.03;;;-146.40;41.73
13033;BME280;6583;42.632;23.298;2023-02-12T04:21:45;72299.19;;;-146.40;41.23
13033;BME280;6583;42.632;23.298;2023-02-12T04:24:20;72289.06;;;-146.40;41.75
13033;BME280;6583;42.632;23.298;2023-02-12T04:26:56;72303.25;;;-146.40;42.32
13033;BME280;6583;42.632;23.298;2023-02-12T04:29:30;72291.09;;;-146.40;42.30
13033;BME280;6583;42.632;23.298;2023-02-12T04:32:03;72295.16;;;-146.40;41.64
13033;BME280;6583;42.632;23.298;2023-02-12T04:34:36;72295.16;;;-146.40;42.09
13033;BME280;6583;42.632;23.298;2023-02-12T04:37:10;72307.28;;;-146.40;42.00
13033;BME280;6583;42.632;23.298;2023-02-12T04:39:40;72299.19;;;-146.40;42.26
13033;BME280;6583;42.632;23.298;2023-02-12T04:42:08;72299.19;;;-146.40;43.08
13033;BME280;6583;42.632;23.298;2023-02-12T04:44:39;72299.19;;;-146.40;43.70
13033;BME280;6583;42.632;23.298;2023-02-12T04:47:06;72309.31;;;-146.40;42.94
13033;BME280;6583;42.632;23.298;2023-02-12T04:49:33;72309.31;;;-146.40;42.71
13033;BME280;6583;42.632;23.298;2023-02-12T04:52:00;72325.50;;;-146.40;42.85
13033;BME280;6583;42.632;23.298;2023-02-12T04:54:27;72319.44;;;-146.40;42.60
13033;BME280;6583;42.632;23.298;2023-02-12T04:56:53;72323.47;;;-146.40;42.80
13033;BME280;6583;42.632;23.298;2023-02-12T04:59:20;72329.56;;;-146.40;42.23
13033;BME280;6583;42.632;23.298;2023-02-12T05:01:47;72343.72;;;-146.40;42.39
13033;BME280;6583;42.632;23.298;2023-02-12T05:04:15;72349.81;;;-146.40;41.20
13033;BME280;6583;42.632;23.298;2023-02-12T05:06:44;72337.66;;;-146.40;41.74
13033;BME280;6583;42.632;23.298;2023-02-12T05:09:13;72343.72;;;-146.40;41.62
13033;BME280;6583;42.632;23.298;2023-02-12T05:11:41;72343.72;;;-146.40;43.31
13033;BME280;6583;42.632;23.298;2023-02-12T05:14:07;72339.69;;;-146.40;43.13
13033;BME280;6583;42.632;23.298;2023-02-12T05:16:34;72359.91;;;-146.40;42.68
13033;BME280;6583;42.632;23.298;2023-02-12T05:19:01;72355.88;;;-146.40;43.52
13033;BME280;6583;42.632;23.298;2023-02-12T05:21:27;72380.16;;;-146.40;42.60
13033;BME280;6583;42.632;23.298;2023-02-12T05:23:55;72368.03;;;-146.40;44.41
13033;BME280;6583;42.632;23.298;2023-02-12T05:26:22;72380.16;;;-146.40;47.01
13033;BME280;6583;42.632;23.298;2023-02-12T05:28:49;72396.34;;;-146.40;50.74
13033;BME280;6583;42.632;23.298;2023-02-12T05:31:17;72408.50;;;-146.40;53.04
13033;BME280;6583;42.632;23.298;2023-02-12T05:33:45;72424.69;;;-146.40;54.35
13033;BME280;6583;42.632;23.298;2023-02-12T05:36:14;72420.66;;;-146.40;55.38
13033;BME280;6583;42.632;23.298;2023-02-12T05:38:41;72428.75;;;-146.40;56.00
13033;BME280;6583;42.632;23.298;2023-02-12T05:41:11;72432.78;;;-146.40;56.46
13033;BME280;6583;42.632;23.298;2023-02-12T05:43:38;72444.94;;;-146.40;56.18
13033;BME280;6583;42.632;23.298;2023-02-12T05:46:05;72440.91;;;-146.40;56.07
13033;BME280;6583;42.632;23.298;2023-02-12T05:48:34;72444.94;;;-146.40;56.49
13033;BME280;6583;42.632;23.298;2023-02-12T05:51:02;72444.94;;;-146.40;56.38
13033;BME280;6583;42.632;23.298;2023-02-12T05:53:29;72461.13;;;-146.40;56.55
13033;BME280;6583;42.632;23.298;2023-02-12T05:56:13;72446.97;;;-146.40;57.06
13033;BME280;6583;42.632;23.298;2023-02-12T05:58:41;72465.19;;;-146.40;57.42
13033;BME280;6583;42.632;23.298;2023-02-12T06:01:09;72461.13;;;-146.40;58.02
13033;BME280;6583;42.632;23.298;2023-02-12T06:03:36;72485.44;;;-146.40;57.79
13033;BME280;6583;42.632;23.298;2023-02-12T06:06:04;72477.34;;;-146.40;59.01
13033;BME280;6583;42.632;23.298;2023-02-12T06:08:30;72473.28;;;-146.40;59.77
13033;BME280;6583;42.632;23.298;2023-02-12T06:10:59;72469.22;;;-146.40;59.54
13033;BME280;6583;42.632;23.298;2023-02-12T06:13:28;72477.34;;;-146.40;59.74
13033;BME280;6583;42.632;23.298;2023-02-12T06:15:55;72469.22;;;-146.40;59.83
13033;BME280;6583;42.632;23.298;2023-02-12T06:18:21;72457.09;;;-146.40;58.76
13033;BME280;6583;42.632;23.298;2023-02-12T06:20:48;72459.13;;;-146.40;60.50
13033;BME280;6583;42.632;23.298;2023-02-12T06:23:15;72471.25;;;-146.40;59.69
13033;BME280;6583;42.632;23.298;2023-02-12T06:25:41;72465.19;;;-146.40;59.02
13033;BME280;6583;42.632;23.298;2023-02-12T06:28:08;72475.31;;;-146.40;59.91
13033;BME280;6583;42.632;23.298;2023-02-12T06:30:36;72459.13;;;-146.40;61.27
13033;BME280;6583;42.632;23.298;2023-02-12T06:33:03;72471.25;;;-146.40;62.49
13033;BME280;6583;42.632;23.298;2023-02-12T06:35:29;72481.38;;;-146.40;63.57
13033;BME280;6583;42.632;23.298;2023-02-12T06:37:56;72471.25;;;-146.40;64.29
13033;BME280;6583;42.632;23.298;2023-02-12T06:40:23;72467.22;;;-146.40;63.58
13033;BME280;6583;42.632;23.298;2023-02-12T06:42:49;72479.34;;;-146.40;64.53
13033;BME280;6583;42.632;23.298;2023-02-12T06:45:16;72481.38;;;-146.40;64.43
13033;BME280;6583;42.632;23.298;2023-02-12T06:47:44;72477.34;;;-146.40;63.87
13033;BME280;6583;42.632;23.298;2023-02-12T06:50:11;72487.44;;;-146.40;62.90
13033;BME280;6583;42.632;23.298;2023-02-12T06:52:37;72469.22;;;-146.40;63.38
13033;BME280;6583;42.632;23.298;2023-02-12T06:55:04;72479.34;;;-146.40;63.38
13033;BME280;6583;42.632;23.298;2023-02-12T06:57:31;72477.34;;;-146.40;62.65
13033;BME280;6583;42.632;23.298;2023-02-12T06:59:58;72465.19;;;-146.40;63.49
13033;BME280;6583;42.632;23.298;2023-02-12T07:02:24;72461.13;;;-146.40;62.62
13033;BME280;6583;42.632;23.298;2023-02-12T07:04:52;72455.06;;;-146.40;62.57
13033;BME280;6583;42.632;23.298;2023-02-12T07:07:19;72455.06;;;-146.40;62.81
13033;BME280;6583;42.632;23.298;2023-02-12T07:09:46;72465.19;;;-146.40;63.07
13033;BME280;6583;42.632;23.298;2023-02-12T07:12:12;72465.19;;;-146.40;62.62
13033;BME280;6583;42.632;23.298;2023-02-12T07:14:39;72442.91;;;-146.40;63.17
13033;BME280;6583;42.632;23.298;2023-02-12T07:17:06;72453.03;;;-146.40;63.17
13033;BME280;6583;42.632;23.298;2023-02-12T07:19:34;72453.03;;;-146.40;63.38
13033;BME280;6583;42.632;23.298;2023-02-12T07:22:02;72455.06;;;-146.40;64.03
13033;BME280;6583;42.632;23.298;2023-02-12T07:24:29;72457.09;;;-146.40;63.92
13033;BME280;6583;42.632;23.298;2023-02-12T07:26:56;72442.91;;;-146.40;63.80
13033;BME280;6583;42.632;23.298;2023-02-12T07:29:22;72442.91;;;-146.40;63.81
13033;BME280;6583;42.632;23.298;2023-02-12T07:31:49;72453.03;;;-146.40;64.20
13033;BME280;6583;42.632;23.298;2023-02-12T07:34:16;72451.00;;;-146.40;64.13
13033;BME280;6583;42.632;23.298;2023-02-12T07:36:43;72446.97;;;-146.40;64.58
13033;BME280;6583;42.632;23.298;2023-02-12T07:39:11;72444.94;;;-146.40;64.75
13033;BME280;6583;42.632;23.298;2023-02-12T07:41:38;72449.00;;;-146.40;64.46
13033;BME280;6583;42.632;23.298;2023-02-12T07:44:06;72453.03;;;-146.40;64.70
13033;BME280;6583;42.632;23.298;2023-02-12T07:46:35;72455.06;;;-146.40;64.63
13033;BME280;6583;42.632;23.298;2023-02-12T07:49:04;72459.13;;;-146.40;65.96
13033;BME280;6583;42.632;23.298;2023-02-12T07:51:31;72457.09;;;-146.40;65.64
13033;BME280;6583;42.632;23.298;2023-02-12T07:53:58;72465.19;;;-146.40;66.33
13033;BME280;6583;42.632;23.298;2023-02-12T07:56:29;72487.44;;;-146.40;66.41
13033;BME280;6583;42.632;23.298;2023-02-12T07:58:58;72501.63;;;-146.40;67.09
13033;BME280;6583;42.632;23.298;2023-02-12T08:01:26;72521.88;;;-146.40;68.21
13033;BME280;6583;42.632;23.298;2023-02-12T08:03:54;72521.88;;;-146.40;68.56
13033;BME280;6583;42.632;23.298;2023-02-12T08:06:24;72513.78;;;-146.40;69.15
13033;BME280;6583;42.632;23.298;2023-02-12T08:08:53;72527.94;;;-146.40;69.61
13033;BME280;6583;42.632;23.298;2023-02-12T08:11:20;72540.09;;;-146.40;69.96
13033;BME280;6583;42.632;23.298;2023-02-12T08:13:49;72538.06;;;-146.40;70.57
13033;BME280;6583;42.632;23.298;2023-02-12T08:16:17;72529.97;;;-146.40;70.80
13033;BME280;6583;42.632;23.298;2023-02-12T08:18:44;72521.88;;;-146.40;71.02
13033;BME280;6583;42.632;23.298;2023-02-12T08:21:12;72505.66;;;-146.40;70.54
13033;BME280;6583;42.632;23.298;2023-02-12T08:23:40;72505.66;;;-146.40;69.74
13033;BME280;6583;42.632;23.298;2023-02-12T08:26:09;72517.81;;;-146.40;70.15
13033;BME280;6583;42.632;23.298;2023-02-12T08:28:38;72534.00;;;-146.40;70.73
13033;BME280;6583;42.632;23.298;2023-02-12T08:31:08;72525.91;;;-146.40;71.51
13033;BME280;6583;42.632;23.298;2023-02-12T08:33:35;72523.91;;;-146.40;71.81
13033;BME280;6583;42.632;23.298;2023-02-12T08:36:04;72534.00;;;-146.40;71.72
13033;BME280;6583;42.632;23.298;2023-02-12T08:38:31;72529.97;;;-146.40;72.21
13033;BME280;6583;42.632;23.298;2023-02-12T08:41:02;72523.91;;;-146.40;71.90
13033;BME280;6583;42.632;23.298;2023-02-12T08:43:28;72525.91;;;-146.40;72.02
13033;BME280;6583;42.632;23.298;2023-02-12T08:46:00;72517.81;;;-146.40;72.29
13033;BME280;6583;42.632;23.298;2023-02-12T08:48:28;72517.81;;;-146.40;72.25
13033;BME280;6583;42.632;23.298;2023-02-12T08:50:55;72525.91;;;-146.40;71.28
13033;BME280;6583;42.632;23.298;2023-02-12T08:53:22;72521.88;;;-146.40;71.22
13033;BME280;6583;42.632;23.298;2023-02-12T08:55:49;72523.91;;;-146.40;71.05
13033;BME280;6583;42.632;23.298;2023-02-12T08:58:15;72505.66;;;-146.40;71.08
13033;BME280;6583;42.632;23.298;2023-02-12T09:00:42;72509.72;;;-146.40;70.76
13033;BME280;6583;42.632;23.298;2023-02-12T09:03:09;72515.78;;;-146.40;70.58
13033;BME280;6583;42.632;23.298;2023-02-12T09:05:38;72497.56;;;-146.40;71.00
13033;BME280;6583;42.632;23.298;2023-02-12T09:08:05;72495.56;;;-146.40;69.88
13033;BME280;6583;42.632;23.298;2023-02-12T09:10:32;72481.38;;;-146.40;69.82
13033;BME280;6583;42.632;23.298;2023-02-12T09:12:59;72483.41;;;-146.40;69.83
13033;BME280;6583;42.632;23.298;2023-02-12T09:15:26;72485.44;;;-146.40;69.12
13033;BME280;6583;42.632;23.298;2023-02-12T09:17:52;72505.66;;;-146.40;69.69
13033;BME280;6583;42.632;23.298;2023-02-12T09:20:19;72505.66;;;-146.40;69.26
13033;BME280;6583;42.632;23.298;2023-02-12T09:22:47;72509.72;;;-146.40;69.71
13033;BME280;6583;42.632;23.298;2023-02-12T09:25:14;72501.63;;;-146.40;69.90
13033;BME280;6583;42.632;23.298;2023-02-12T09:27:40;72501.63;;;-146.40;70.58
13033;BME280;6583;42.632;23.298;2023-02-12T09:30:08;72489.47;;;-146.40;71.29
13033;BME280;6583;42.632;23.298;2023-02-12T09:32:35;72497.56;;;-146.40;70.01
13033;BME280;6583;42.632;23.298;2023-02-12T09:35:01;72493.53;;;-146.40;70.05
13033;BME280;6583;42.632;23.298;2023-02-12T09:37:28;72487.44;;;-146.40;70.78
13033;BME280;6583;42.632;23.298;2023-02-12T09:39:56;72489.47;;;-146.40;70.13
13033;BME280;6583;42.632;23.298;2023-02-12T09:42:31;72481.38;;;-146.40;69.65
13033;BME280;6583;42.632;23.298;2023-02-12T09:45:07;72481.38;;;-146.40;70.20
13033;BME280;6583;42.632;23.298;2023-02-12T09:47:41;72469.22;;;-146.40;69.76
13033;BME280;6583;42.632;23.298;2023-02-12T09:50:22;72461.13;;;-146.40;69.06
13033;BME280;6583;42.632;23.298;2023-02-12T09:52:50;72471.25;;;-146.40;69.52
13033;BME280;6583;42.632;23.298;2023-02-12T09:55:19;72509.72;;;-146.40;69.25
13033;BME280;6583;42.632;23.298;2023-02-12T09:57:47;72519.84;;;-146.40;70.28
13033;BME280;6583;42.632;23.298;2023-02-12T10:00:16;72534.00;;;-146.40;70.43
13033;BME280;6583;42.632;23.298;2023-02-12T10:02:44;72540.09;;;-146.40;71.35
13033;BME280;6583;42.632;23.298;2023-02-12T10:05:15;72521.88;;;-146.40;72.02
13033;BME280;6583;42.632;23.298;2023-02-12T10:08:33;72509.72;;;-146.40;71.69
13033;BME280;6583;42.632;23.298;2023-02-12T10:11:27;72517.81;;;-146.40;71.43
13033;BME280;6583;42.632;23.298;2023-02-12T10:14:07;72503.66;;;-146.40;71.62
13033;BME280;6583;42.632;23.298;2023-02-12T10:16:46;72493.53;;;-146.40;71.59
13033;BME280;6583;42.632;23.298;2023-02-12T10:19:31;72489.47;;;-146.40;71.22
13033;BME280;6583;42.632;23.298;2023-02-12T10:22:09;72473.28;;;-146.40;71.40
13033;BME280;6583;42.632;23.298;2023-02-12T10:24:48;72461.13;;;-146.40;70.70
13033;BME280;6583;42.632;23.298;2023-02-12T10:27:23;72440.91;;;-146.40;70.61
13033;BME280;6583;42.632;23.298;2023-02-12T10:29:51;72420.66;;;-146.40;70.14
13033;BME280;6583;42.632;23.298;2023-02-12T10:32:24;72422.69;;;-146.40;69.10
13033;BME280;6583;42.632;23.298;2023-02-12T10:34:55;72446.97;;;-146.40;68.62
13033;BME280;6583;42.632;23.298;2023-02-12T10:37:27;72449.00;;;-146.40;69.14
13033;BME280;6583;42.632;23.298;2023-02-12T10:40:01;72461.13;;;-146.40;69.95
13033;BME280;6583;42.632;23.298;2023-02-12T10:42:37;72442.91;;;-146.40;70.13
13033;BME280;6583;42.632;23.298;2023-02-12T10:45:05;72453.03;;;-146.40;70.26
13033;BME280;6583;42.632;23.298;2023-02-12T10:47:41;72461.13;;;-146.40;69.74
13033;BME280;6583;42.632;23.298;2023-02-12T10:50:16;72453.03;;;-146.40;70.47
13033;BME280;6583;42.632;23.298;2023-02-12T10:52:47;72461.13;;;-146.40;70.18
13033;BME280;6583;42.632;23.298;2023-02-12T10:55:29;72475.31;;;-146.40;70.66
13033;BME280;6583;42.632;23.298;2023-02-12T10:57:59;72461.13;;;-146.40;71.36
13033;BME280;6583;42.632;23.298;2023-02-12T11:00:30;72469.22;;;-146.40;71.09
13033;BME280;6583;42.632;23.298;2023-02-12T11:03:02;72451.00;;;-146.40;71.25
13033;BME280;6583;42.632;23.298;2023-02-12T11:05:32;72440.91;;;-146.40;70.59
13033;BME280;6583;42.632;23.298;2023-02-12T11:07:59;72442.91;;;-146.40;69.76
13033;BME280;6583;42.632;23.298;2023-02-12T11:10:27;72432.78;;;-146.40;69.79
13033;BME280;6583;42.632;23.298;2023-02-12T11:12:58;72422.69;;;-146.40;69.53
13033;BME280;6583;42.632;23.298;2023-02-12T11:15:27;72426.72;;;-146.40;69.44
13033;BME280;6583;42.632;23.298;2023-02-12T11:17:59;72434.81;;;-146.40;69.46
13033;BME280;6583;42.632;23.298;2023-02-12T11:20:28;72420.66;;;-146.40;69.53
13033;BME280;6583;42.632;23.298;2023-02-12T11:22:57;72404.47;;;-146.40;69.61
13033;BME280;6583;42.632;23.298;2023-02-12T11:25:26;72408.50;;;-146.40;69.53
13033;BME280;6583;42.632;23.298;2023-02-12T11:28:12;72392.31;;;-146.40;69.26
13033;BME280;6583;42.632;23.298;2023-02-12T11:30:49;72406.47;;;-146.40;68.74
13033;BME280;6583;42.632;23.298;2023-02-12T11:33:25;72396.34;;;-146.40;69.08
13033;BME280;6583;42.632;23.298;2023-02-12T11:35:55;72396.34;;;-146.40;69.36
13033;BME280;6583;42.632;23.298;2023-02-12T11:38:25;72380.16;;;-146.40;69.35
13033;BME280;6583;42.632;23.298;2023-02-12T11:40:59;72378.13;;;-146.40;68.98
13033;BME280;6583;42.632;23.298;2023-02-12T11:43:30;72363.97;;;-146.40;69.52
13033;BME280;6583;42.632;23.298;2023-02-12T11:45:58;72363.97;;;-146.40;69.28
13033;BME280;6583;42.632;23.298;2023-02-12T11:48:29;72335.63;;;-146.40;69.14
13033;BME280;6583;42.632;23.298;2023-02-12T11:51:00;72325.50;;;-146.40;68.16
13033;BME280;6583;42.632;23.298;2023-02-12T11:53:29;72327.53;;;-146.40;67.76
13033;BME280;6583;42.632;23.298;2023-02-12T11:56:00;72299.19;;;-146.40;67.67
13033;BME280;6583;42.632;23.298;2023-02-12T11:58:29;72291.09;;;-146.40;67.34
13033;BME280;6583;42.632;23.298;2023-02-12T12:01:02;72315.38;;;-146.40;65.90
13033;BME280;6583;42.632;23.298;2023-02-12T12:03:36;72309.31;;;-146.40;66.91
13033;BME280;6583;42.632;23.298;2023-02-12T12:06:08;72315.38;;;-146.40;67.15
13033;BME280;6583;42.632;23.298;2023-02-12T12:08:43;72323.47;;;-146.40;66.66
13033;BME280;6583;42.632;23.298;2023-02-12T12:11:17;72329.56;;;-146.40;65.82
13033;BME280;6583;42.632;23.298;2023-02-12T12:13:52;72329.56;;;-146.40;66.83
13033;BME280;6583;42.632;23.298;2023-02-12T12:16:23;72323.47;;;-146.40;66.72
13033;BME280;6583;42.632;23.298;2023-02-12T12:19:14;72307.28;;;-146.40;67.29
13033;BME280;6583;42.632;23.298;2023-02-12T12:22:21;72299.19;;;-146.40;66.31
13033;BME280;6583;42.632;23.298;2023-02-12T12:24:52;72295.16;;;-146.40;65.46
13033;BME280;6583;42.632;23.298;2023-02-12T12:27:26;72274.91;;;-146.40;64.81
13033;BME280;6583;42.632;23.298;2023-02-12T12:30:21;72266.81;;;-146.40;64.00
13033;BME280;6583;42.632;23.298;2023-02-12T12:32:51;72278.94;;;-146.40;63.30
13033;BME280;6583;42.632;23.298;2023-02-12T12:35:26;72287.03;;;-146.40;63.62
13033;BME280;6583;42.632;23.298;2023-02-12T12:38:00;72291.09;;;-146.40;64.79
13033;BME280;6583;42.632;23.298;2023-02-12T12:40:50;72287.03;;;-146.40;64.21
13033;BME280;6583;42.632;23.298;2023-02-12T12:43:25;72283.00;;;-146.40;64.82
13033;BME280;6583;42.632;23.298;2023-02-12T12:46:12;72280.97;;;-146.40;63.58
13033;BME280;6583;42.632;23.298;2023-02-12T12:52:00;72254.66;;;-146.40;62.35
13033;BME280;6583;42.632;23.298;2023-02-12T12:54:39;72254.66;;;-146.40;62.82
13033;BME280;6583;42.632;23.298;2023-02-12T12:57:20;72250.63;;;-146.40;62.92
13033;BME280;6583;42.632;23.298;2023-02-12T13:00:05;72274.91;;;-146.40;62.28
13033;BME280;6583;42.632;23.298;2023-02-12T13:03:11;72270.84;;;-146.40;61.69